sensor_id;sensor_type;location;lat;lon;timestamp;P1;durP1;ratioP1;P2;durP2;ratioP2
68995;SDS011;56056;48.990;12.146;2023-07-08T00:00:07;1983.10;;;999.90;;
68995;SDS011;56056;48.990;12.146;2023-07-08T00:02:35;1967.40;;;999.90;;
68995;SDS011;56056;48.990;12.146;2023-07-08T00:05:01;1974.47;;;999.90;;
68995;SDS011;56056;48.990;12.146;2023-07-08T00:07:26;1999.90;;;999.90;;
68995;SDS011;56056;48.990;12.146;2023-07-08T00:09:52;1987.45;;;999.90;;
68995;SDS011;56056;48.990;12.146;2023-07-08T00:12:19;1896.50;;;999.90;;
68995;SDS011;56056;48.990;12.146;2023-07-08T00:14:44;1969.53;;;999.90;;
68995;SDS011;56056;48.990;12.146;2023-07-08T00:17:11;1940.60;;;999.90;;
68995;SDS011;56056;48.990;12.146;2023-07-08T00:19:37;1999.90;;;999.90;;
68995;SDS011;56056;48.990;12.146;2023-07-08T00:22:07;1979.47;;;999.90;;
68995;SDS011;56056;48.990;12.146;2023-07-08T00:24:35;1991.85;;;999.90;;
68995;SDS011;56056;48.990;12.146;2023-07-08T00:27:00;1995.28;;;999.90;;
68995;SDS011;56056;48.990;12.146;2023-07-08T00:29:27;1999.90;;;999.90;;
68995;SDS011;56056;48.990;12.146;2023-07-08T00:31:53;1995.13;;;999.90;;
68995;SDS011;56056;48.990;12.146;2023-07-08T00:34:19;1987.55;;;999.90;;
68995;SDS011;56056;48.990;12.146;2023-07-08T00:36:44;1842.78;;;999.90;;
68995;SDS011;56056;48.990;12.146;2023-07-08T00:39:12;1947.85;;;999.90;;
68995;SDS011;56056;48.990;12.146;2023-07-08T00:41:39;1985.90;;;999.90;;
68995;SDS011;56056;48.990;12.146;2023-07-08T00:44:07;1952.43;;;999.90;;
68995;SDS011;56056;48.990;12.146;2023-07-08T00:46:40;1990.65;;;999.90;;
68995;SDS011;56056;48.990;12.146;2023-07-08T00:49:17;1868.82;;;999.90;;
68995;SDS011;56056;48.990;12.146;2023-07-08T00:51:49;1984.82;;;999.90;;
68995;SDS011;56056;48.990;12.146;2023-07-08T00:54:16;1928.97;;;999.90;;
68995;SDS011;56056;48.990;12.146;2023-07-08T00:56:43;1984.03;;;999.90;;
68995;SDS011;56056;48.990;12.146;2023-07-08T00:59:12;1947.32;;;999.90;;
68995;SDS011;56056;48.990;12.146;2023-07-08T01:01:42;1844.40;;;999.90;;
68995;SDS011;56056;48.990;12.146;2023-07-08T01:04:09;1941.97;;;999.90;;
68995;SDS011;56056;48.990;12.146;2023-07-08T01:06:36;1801.07;;;999.90;;
68995;SDS011;56056;48.990;12.146;2023-07-08T01:09:05;1765.00;;;999.90;;
68995;SDS011;56056;48.990;12.146;2023-07-08T01:11:31;1691.32;;;999.90;;
68995;SDS011;56056;48.990;12.146;2023-07-08T01:13:57;1607.93;;;999.90;;
68995;SDS011;56056;48.990;12.146;2023-07-08T01:16:25;1637.38;;;999.90;;
68995;SDS011;56056;48.990;12.146;2023-07-08T01:18:52;1583.32;;;999.90;;
68995;SDS011;56056;48.990;12.146;2023-07-08T01:21:29;1580.32;;;999.90;;
68995;SDS011;56056;48.990;12.146;2023-07-08T01:23:58;1527.70;;;999.90;;
68995;SDS011;56056;48.990;12.146;2023-07-08T01:26:24;1728.93;;;999.90;;
68995;SDS011;56056;48.990;12.146;2023-07-08T01:28:51;1685.07;;;999.90;;
68995;SDS011;56056;48.990;12.146;2023-07-08T01:31:18;1699.20;;;999.90;;
68995;SDS011;56056;48.990;12.146;2023-07-08T01:33:43;1537.10;;;999.90;;
68995;SDS011;56056;48.990;12.146;2023-07-08T01:36:09;1678.75;;;999.90;;
68995;SDS011;56056;48.990;12.146;2023-07-08T01:38:35;1675.63;;;999.90;;
68995;SDS011;56056;48.990;12.146;2023-07-08T01:41:03;1659.47;;;999.90;;
68995;SDS011;56056;48.990;12.146;2023-07-08T01:43:28;1600.60;;;999.90;;
68995;SDS011;56056;48.990;12.146;2023-07-08T01:45:54;1478.13;;;999.90;;
68995;SDS011;56056;48.990;12.146;2023-07-08T01:48:20;1604.53;;;999.90;;
68995;SDS011;56056;48.990;12.146;2023-07-08T01:50:49;1531.00;;;999.90;;
68995;SDS011;56056;48.990;12.146;2023-07-08T01:53:18;1500.57;;;999.90;;
68995;SDS011;56056;48.990;12.146;2023-07-08T01:55:47;1473.22;;;999.90;;
68995;SDS011;56056;48.990;12.146;2023-07-08T01:58:14;1530.72;;;999.90;;
68995;SDS011;56056;48.990;12.146;2023-07-08T02:00:40;1453.35;;;999.90;;
68995;SDS011;56056;48.990;12.146;2023-07-08T02:03:05;1524.70;;;999.90;;
68995;SDS011;56056;48.990;12.146;2023-07-08T02:05:31;1383.25;;;999.90;;
68995;SDS011;56056;48.990;12.146;2023-07-08T02:07:57;1415.05;;;999.90;;
68995;SDS011;56056;48.990;12.146;2023-07-08T02:10:22;1524.72;;;999.90;;
68995;SDS011;56056;48.990;12.146;2023-07-08T02:12:50;1403.80;;;999.90;;
68995;SDS011;56056;48.990;12.146;2023-07-08T02:15:17;1336.85;;;999.90;;
68995;SDS011;56056;48.990;12.146;2023-07-08T02:17:43;1407.03;;;999.90;;
68995;SDS011;56056;48.990;12.146;2023-07-08T02:20:09;1418.07;;;999.90;;
68995;SDS011;56056;48.990;12.146;2023-07-08T02:22:35;1339.78;;;999.90;;
68995;SDS011;56056;48.990;12.146;2023-07-08T02:25:01;1311.97;;;999.90;;
68995;SDS011;56056;48.990;12.146;2023-07-08T02:27:27;1670.22;;;999.90;;
68995;SDS011;56056;48.990;12.146;2023-07-08T02:29:53;1472.45;;;999.90;;
68995;SDS011;56056;48.990;12.146;2023-07-08T02:32:20;1422.13;;;999.90;;
68995;SDS011;56056;48.990;12.146;2023-07-08T02:34:45;1668.35;;;999.90;;
68995;SDS011;56056;48.990;12.146;2023-07-08T02:37:11;1695.45;;;999.90;;
68995;SDS011;56056;48.990;12.146;2023-07-08T02:39:37;1684.20;;;999.90;;
68995;SDS011;56056;48.990;12.146;2023-07-08T02:42:03;1782.50;;;999.90;;
68995;SDS011;56056;48.990;12.146;2023-07-08T02:44:29;1849.40;;;999.90;;
68995;SDS011;56056;48.990;12.146;2023-07-08T02:46:54;1607.68;;;999.90;;
68995;SDS011;56056;48.990;12.146;2023-07-08T02:49:22;1789.57;;;999.90;;
68995;SDS011;56056;48.990;12.146;2023-07-08T02:51:47;1879.05;;;999.90;;
68995;SDS011;56056;48.990;12.146;2023-07-08T02:54:13;1951.90;;;999.90;;
68995;SDS011;56056;48.990;12.146;2023-07-08T02:56:39;1972.85;;;999.90;;
68995;SDS011;56056;48.990;12.146;2023-07-08T02:59:04;1999.90;;;999.90;;
68995;SDS011;56056;48.990;12.146;2023-07-08T03:01:31;1999.90;;;999.90;;
68995;SDS011;56056;48.990;12.146;2023-07-08T03:03:59;1999.90;;;999.90;;
68995;SDS011;56056;48.990;12.146;2023-07-08T03:06:26;1999.90;;;999.90;;
68995;SDS011;56056;48.990;12.146;2023-07-08T03:08:52;1999.90;;;999.90;;
68995;SDS011;56056;48.990;12.146;2023-07-08T03:11:18;1999.90;;;999.90;;
68995;SDS011;56056;48.990;12.146;2023-07-08T03:13:43;1999.90;;;999.90;;
68995;SDS011;56056;48.990;12.146;2023-07-08T03:16:09;1999.90;;;999.90;;
68995;SDS011;56056;48.990;12.146;2023-07-08T03:18:38;1999.90;;;999.90;;
68995;SDS011;56056;48.990;12.146;2023-07-08T03:21:11;1999.90;;;999.90;;
68995;SDS011;56056;48.990;12.146;2023-07-08T03:23:39;1999.90;;;999.90;;
68995;SDS011;56056;48.990;12.146;2023-07-08T03:26:04;1999.90;;;999.90;;
68995;SDS011;56056;48.990;12.146;2023-07-08T03:28:30;1999.90;;;999.90;;
68995;SDS011;56056;48.990;12.146;2023-07-08T03:30:56;1999.90;;;999.90;;
68995;SDS011;56056;48.990;12.146;2023-07-08T03:33:22;1999.90;;;999.90;;
68995;SDS011;56056;48.990;12.146;2023-07-08T03:35:48;1999.90;;;999.90;;
68995;SDS011;56056;48.990;12.146;2023-07-08T03:38:14;1999.90;;;999.90;;
68995;SDS011;56056;48.990;12.146;2023-07-08T03:40:41;1999.90;;;999.90;;
68995;SDS011;56056;48.990;12.146;2023-07-08T03:43:07;1999.90;;;999.90;;
68995;SDS011;56056;48.990;12.146;2023-07-08T03:45:33;1999.90;;;999.90;;
68995;SDS011;56056;48.990;12.146;2023-07-08T03:47:58;1999.90;;;999.90;;
68995;SDS011;56056;48.990;12.146;2023-07-08T03:50:25;1999.90;;;999.90;;
68995;SDS011;56056;48.990;12.146;2023-07-08T03:52:51;1999.90;;;999.90;;
68995;SDS011;56056;48.990;12.146;2023-07-08T03:55:18;1999.90;;;999.90;;
68995;SDS011;56056;48.990;12.146;2023-07-08T03:57:45;1962.10;;;999.90;;
68995;SDS011;56056;48.990;12.146;2023-07-08T04:00:11;1963.97;;;999.90;;
68995;SDS011;56056;48.990;12.146;2023-07-08T04:02:37;1999.90;;;999.90;;
68995;SDS011;56056;48.990;12.146;2023-07-08T04:05:03;1999.90;;;999.90;;
68995;SDS011;56056;48.990;12.146;2023-07-08T04:07:29;1942.82;;;999.90;;
68995;SDS011;56056;48.990;12.146;2023-07-08T04:09:55;1413.60;;;999.90;;
68995;SDS011;56056;48.990;12.146;2023-07-08T04:12:21;1814.82;;;999.90;;
68995;SDS011;56056;48.990;12.146;2023-07-08T04:14:48;1214.55;;;999.90;;
68995;SDS011;56056;48.990;12.146;2023-07-08T04:17:13;1168.65;;;999.90;;
68995;SDS011;56056;48.990;12.146;2023-07-08T04:19:39;1176.20;;;999.90;;
68995;SDS011;56056;48.990;12.146;2023-07-08T04:22:09;1223.97;;;999.90;;
68995;SDS011;56056;48.990;12.146;2023-07-08T04:24:35;1248.55;;;999.90;;
68995;SDS011;56056;48.990;12.146;2023-07-08T04:27:01;1525.65;;;999.90;;
68995;SDS011;56056;48.990;12.146;2023-07-08T04:29:27;1337.28;;;999.90;;
68995;SDS011;56056;48.990;12.146;2023-07-08T04:31:54;1254.40;;;999.90;;
68995;SDS011;56056;48.990;12.146;2023-07-08T04:34:19;1392.15;;;999.90;;
68995;SDS011;56056;48.990;12.146;2023-07-08T04:36:45;1529.45;;;999.90;;
68995;SDS011;56056;48.990;12.146;2023-07-08T04:39:11;1474.63;;;999.90;;
68995;SDS011;56056;48.990;12.146;2023-07-08T04:41:38;1537.03;;;999.90;;
68995;SDS011;56056;48.990;12.146;2023-07-08T04:44:05;1620.55;;;999.90;;
68995;SDS011;56056;48.990;12.146;2023-07-08T04:46:33;1514.28;;;999.90;;
68995;SDS011;56056;48.990;12.146;2023-07-08T04:49:03;1685.90;;;999.90;;
68995;SDS011;56056;48.990;12.146;2023-07-08T04:51:29;1834.30;;;999.90;;
68995;SDS011;56056;48.990;12.146;2023-07-08T04:53:55;1914.50;;;999.90;;
68995;SDS011;56056;48.990;12.146;2023-07-08T04:56:21;1890.82;;;999.90;;
68995;SDS011;56056;48.990;12.146;2023-07-08T04:58:48;1841.25;;;999.90;;
68995;SDS011;56056;48.990;12.146;2023-07-08T05:01:14;1702.63;;;999.90;;
68995;SDS011;56056;48.990;12.146;2023-07-08T05:03:39;1663.68;;;999.90;;
68995;SDS011;56056;48.990;12.146;2023-07-08T05:06:06;1524.85;;;999.90;;
68995;SDS011;56056;48.990;12.146;2023-07-08T05:08:32;1495.55;;;999.90;;
68995;SDS011;56056;48.990;12.146;2023-07-08T05:10:58;1442.82;;;999.90;;
68995;SDS011;56056;48.990;12.146;2023-07-08T05:13:24;1582.85;;;999.90;;
68995;SDS011;56056;48.990;12.146;2023-07-08T05:15:50;1516.93;;;999.90;;
68995;SDS011;56056;48.990;12.146;2023-07-08T05:18:15;1671.63;;;999.90;;
68995;SDS011;56056;48.990;12.146;2023-07-08T05:20:41;1634.70;;;999.90;;
68995;SDS011;56056;48.990;12.146;2023-07-08T05:23:09;1494.90;;;999.90;;
68995;SDS011;56056;48.990;12.146;2023-07-08T05:25:35;1434.75;;;999.90;;
68995;SDS011;56056;48.990;12.146;2023-07-08T05:28:00;1333.97;;;999.90;;
68995;SDS011;56056;48.990;12.146;2023-07-08T05:30:26;1207.88;;;999.90;;
68995;SDS011;56056;48.990;12.146;2023-07-08T05:32:52;1205.35;;;999.90;;
68995;SDS011;56056;48.990;12.146;2023-07-08T05:35:18;1194.03;;;999.90;;
68995;SDS011;56056;48.990;12.146;2023-07-08T05:37:44;1331.65;;;999.90;;
68995;SDS011;56056;48.990;12.146;2023-07-08T05:40:13;1361.35;;;999.90;;
68995;SDS011;56056;48.990;12.146;2023-07-08T05:42:39;1600.72;;;999.90;;
68995;SDS011;56056;48.990;12.146;2023-07-08T05:45:05;1815.60;;;999.90;;
68995;SDS011;56056;48.990;12.146;2023-07-08T05:47:32;1845.47;;;999.90;;
68995;SDS011;56056;48.990;12.146;2023-07-08T05:49:57;1877.68;;;999.90;;
68995;SDS011;56056;48.990;12.146;2023-07-08T05:52:23;1490.60;;;999.90;;
68995;SDS011;56056;48.990;12.146;2023-07-08T05:54:49;1621.25;;;999.90;;
68995;SDS011;56056;48.990;12.146;2023-07-08T05:57:16;1672.70;;;999.90;;
68995;SDS011;56056;48.990;12.146;2023-07-08T05:59:41;1846.43;;;999.90;;
68995;SDS011;56056;48.990;12.146;2023-07-08T06:02:08;1999.90;;;999.90;;
68995;SDS011;56056;48.990;12.146;2023-07-08T06:04:35;1999.90;;;999.90;;
68995;SDS011;56056;48.990;12.146;2023-07-08T06:07:00;1999.90;;;999.90;;
68995;SDS011;56056;48.990;12.146;2023-07-08T06:09:26;1999.90;;;999.90;;
68995;SDS011;56056;48.990;12.146;2023-07-08T06:11:52;1999.90;;;999.90;;
68995;SDS011;56056;48.990;12.146;2023-07-08T06:14:19;1999.90;;;999.90;;
68995;SDS011;56056;48.990;12.146;2023-07-08T06:16:44;1999.90;;;999.90;;
68995;SDS011;56056;48.990;12.146;2023-07-08T06:19:10;1999.90;;;999.90;;
68995;SDS011;56056;48.990;12.146;2023-07-08T06:21:36;1999.90;;;999.90;;
68995;SDS011;56056;48.990;12.146;2023-07-08T06:24:02;1999.90;;;999.90;;
68995;SDS011;56056;48.990;12.146;2023-07-08T06:26:28;1999.90;;;999.90;;
68995;SDS011;56056;48.990;12.146;2023-07-08T06:28:53;1999.90;;;999.90;;
68995;SDS011;56056;48.990;12.146;2023-07-08T06:31:20;1999.90;;;999.90;;
68995;SDS011;56056;48.990;12.146;2023-07-08T06:33:46;1999.90;;;999.90;;
68995;SDS011;56056;48.990;12.146;2023-07-08T06:36:11;1999.90;;;999.90;;
68995;SDS011;56056;48.990;12.146;2023-07-08T06:38:37;1888.85;;;999.90;;
68995;SDS011;56056;48.990;12.146;2023-07-08T06:41:03;1848.95;;;999.90;;
68995;SDS011;56056;48.990;12.146;2023-07-08T06:43:28;1823.40;;;999.90;;
68995;SDS011;56056;48.990;12.146;2023-07-08T06:45:54;1692.28;;;999.90;;
68995;SDS011;56056;48.990;12.146;2023-07-08T06:48:21;1628.45;;;999.90;;
68995;SDS011;56056;48.990;12.146;2023-07-08T06:50:47;1850.45;;;999.90;;
68995;SDS011;56056;48.990;12.146;2023-07-08T06:53:13;1999.90;;;999.90;;
68995;SDS011;56056;48.990;12.146;2023-07-08T06:55:38;1999.90;;;999.90;;
68995;SDS011;56056;48.990;12.146;2023-07-08T06:58:04;1999.90;;;999.90;;
68995;SDS011;56056;48.990;12.146;2023-07-08T07:00:30;1999.90;;;999.90;;
68995;SDS011;56056;48.990;12.146;2023-07-08T07:02:55;1894.70;;;999.90;;
68995;SDS011;56056;48.990;12.146;2023-07-08T07:05:22;1999.90;;;999.90;;
68995;SDS011;56056;48.990;12.146;2023-07-08T07:07:48;1999.90;;;999.90;;
68995;SDS011;56056;48.990;12.146;2023-07-08T07:10:14;1999.90;;;999.90;;
68995;SDS011;56056;48.990;12.146;2023-07-08T07:12:40;1656.45;;;999.90;;
68995;SDS011;56056;48.990;12.146;2023-07-08T07:15:06;1999.90;;;999.90;;
68995;SDS011;56056;48.990;12.146;2023-07-08T07:17:32;1247.00;;;999.90;;
68995;SDS011;56056;48.990;12.146;2023-07-08T07:19:57;1222.72;;;999.90;;
68995;SDS011;56056;48.990;12.146;2023-07-08T07:22:24;1852.32;;;999.90;;
68995;SDS011;56056;48.990;12.146;2023-07-08T07:24:50;1587.60;;;999.90;;
68995;SDS011;56056;48.990;12.146;2023-07-08T07:27:16;1434.47;;;999.90;;
68995;SDS011;56056;48.990;12.146;2023-07-08T07:29:42;1975.60;;;999.90;;
68995;SDS011;56056;48.990;12.146;2023-07-08T07:32:09;1592.93;;;999.90;;
68995;SDS011;56056;48.990;12.146;2023-07-08T07:34:34;1270.72;;;999.90;;
68995;SDS011;56056;48.990;12.146;2023-07-08T07:37:00;1301.25;;;999.90;;
68995;SDS011;56056;48.990;12.146;2023-07-08T07:39:27;1335.78;;;999.90;;
68995;SDS011;56056;48.990;12.146;2023-07-08T07:41:53;1308.80;;;999.90;;
68995;SDS011;56056;48.990;12.146;2023-07-08T07:44:19;1637.68;;;999.90;;
68995;SDS011;56056;48.990;12.146;2023-07-08T07:46:45;1370.93;;;999.90;;
68995;SDS011;56056;48.990;12.146;2023-07-08T07:49:12;1447.65;;;999.90;;
68995;SDS011;56056;48.990;12.146;2023-07-08T07:51:37;1606.97;;;999.90;;
68995;SDS011;56056;48.990;12.146;2023-07-08T07:54:03;1806.80;;;999.90;;
68995;SDS011;56056;48.990;12.146;2023-07-08T07:56:30;1739.15;;;999.90;;
68995;SDS011;56056;48.990;12.146;2023-07-08T07:58:56;1742.70;;;999.90;;
68995;SDS011;56056;48.990;12.146;2023-07-08T08:01:22;1869.75;;;999.90;;
68995;SDS011;56056;48.990;12.146;2023-07-08T08:03:48;1887.82;;;999.90;;
68995;SDS011;56056;48.990;12.146;2023-07-08T08:06:17;1864.55;;;999.90;;
68995;SDS011;56056;48.990;12.146;2023-07-08T08:08:43;1800.75;;;999.90;;
68995;SDS011;56056;48.990;12.146;2023-07-08T08:11:08;1657.40;;;999.90;;
68995;SDS011;56056;48.990;12.146;2023-07-08T08:13:35;1829.03;;;999.90;;
68995;SDS011;56056;48.990;12.146;2023-07-08T08:16:01;1784.13;;;999.90;;
68995;SDS011;56056;48.990;12.146;2023-07-08T08:18:27;1828.25;;;999.90;;
68995;SDS011;56056;48.990;12.146;2023-07-08T08:20:53;1857.70;;;999.90;;
68995;SDS011;56056;48.990;12.146;2023-07-08T08:23:19;1659.28;;;999.90;;
68995;SDS011;56056;48.990;12.146;2023-07-08T08:25:44;1723.63;;;999.90;;
68995;SDS011;56056;48.990;12.146;2023-07-08T08:28:10;1819.63;;;999.90;;
68995;SDS011;56056;48.990;12.146;2023-07-08T08:30:37;1645.10;;;999.90;;
68995;SDS011;56056;48.990;12.146;2023-07-08T08:33:03;1719.47;;;999.90;;
68995;SDS011;56056;48.990;12.146;2023-07-08T08:35:29;1639.30;;;999.90;;
68995;SDS011;56056;48.990;12.146;2023-07-08T08:37:54;1876.85;;;999.90;;
68995;SDS011;56056;48.990;12.146;2023-07-08T08:40:20;1746.47;;;999.90;;
68995;SDS011;56056;48.990;12.146;2023-07-08T08:42:51;1654.75;;;999.90;;
68995;SDS011;56056;48.990;12.146;2023-07-08T08:45:19;1716.20;;;999.90;;
68995;SDS011;56056;48.990;12.146;2023-07-08T08:47:48;1593.43;;;999.90;;
68995;SDS011;56056;48.990;12.146;2023-07-08T08:50:26;1618.78;;;999.90;;
68995;SDS011;56056;48.990;12.146;2023-07-08T08:52:55;1593.45;;;999.90;;
68995;SDS011;56056;48.990;12.146;2023-07-08T08:55:22;1568.13;;;999.90;;
68995;SDS011;56056;48.990;12.146;2023-07-08T08:57:51;1584.18;;;999.90;;
68995;SDS011;56056;48.990;12.146;2023-07-08T09:00:23;1654.18;;;999.90;;
68995;SDS011;56056;48.990;12.146;2023-07-08T09:02:57;1592.30;;;999.90;;
68995;SDS011;56056;48.990;12.146;2023-07-08T09:05:27;1705.82;;;999.90;;
68995;SDS011;56056;48.990;12.146;2023-07-08T09:07:59;1572.25;;;999.90;;
68995;SDS011;56056;48.990;12.146;2023-07-08T09:10:29;1596.55;;;999.90;;
68995;SDS011;56056;48.990;12.146;2023-07-08T09:13:01;1551.22;;;999.90;;
68995;SDS011;56056;48.990;12.146;2023-07-08T09:15:28;1529.50;;;999.90;;
68995;SDS011;56056;48.990;12.146;2023-07-08T09:17:55;1574.30;;;999.90;;
68995;SDS011;56056;48.990;12.146;2023-07-08T09:20:24;1577.00;;;999.90;;
68995;SDS011;56056;48.990;12.146;2023-07-08T09:22:53;1473.93;;;999.90;;
68995;SDS011;56056;48.990;12.146;2023-07-08T09:25:24;1388.00;;;999.90;;
68995;SDS011;56056;48.990;12.146;2023-07-08T09:27:51;1524.45;;;999.90;;
68995;SDS011;56056;48.990;12.146;2023-07-08T09:30:18;1437.63;;;999.90;;
68995;SDS011;56056;48.990;12.146;2023-07-08T09:32:46;1458.15;;;999.90;;
68995;SDS011;56056;48.990;12.146;2023-07-08T09:35:16;1663.57;;;999.90;;
68995;SDS011;56056;48.990;12.146;2023-07-08T09:37:44;1517.75;;;999.90;;
68995;SDS011;56056;48.990;12.146;2023-07-08T09:40:14;1461.55;;;999.90;;
68995;SDS011;56056;48.990;12.146;2023-07-08T09:42:41;1545.30;;;999.90;;
68995;SDS011;56056;48.990;12.146;2023-07-08T09:45:10;1520.10;;;999.90;;
68995;SDS011;56056;48.990;12.146;2023-07-08T09:47:37;1569.07;;;999.90;;
68995;SDS011;56056;48.990;12.146;2023-07-08T09:50:10;1564.70;;;999.90;;
68995;SDS011;56056;48.990;12.146;2023-07-08T09:52:43;1568.30;;;999.90;;
68995;SDS011;56056;48.990;12.146;2023-07-08T09:55:10;1577.88;;;999.90;;
68995;SDS011;56056;48.990;12.146;2023-07-08T09:57:36;1596.20;;;999.90;;
68995;SDS011;56056;48.990;12.146;2023-07-08T10:00:03;1575.68;;;999.90;;
68995;SDS011;56056;48.990;12.146;2023-07-08T10:02:38;1577.57;;;999.90;;
68995;SDS011;56056;48.990;12.146;2023-07-08T10:05:10;1616.70;;;999.90;;
68995;SDS011;56056;48.990;12.146;2023-07-08T10:07:40;1543.70;;;999.90;;
68995;SDS011;56056;48.990;12.146;2023-07-08T10:10:06;1541.00;;;999.90;;
68995;SDS011;56056;48.990;12.146;2023-07-08T10:12:39;1628.22;;;999.90;;
68995;SDS011;56056;48.990;12.146;2023-07-08T10:15:14;1651.15;;;999.90;;
68995;SDS011;56056;48.990;12.146;2023-07-08T10:17:45;1696.18;;;999.90;;
68995;SDS011;56056;48.990;12.146;2023-07-08T10:20:11;1549.57;;;999.90;;
68995;SDS011;56056;48.990;12.146;2023-07-08T10:22:41;1582.28;;;999.90;;
68995;SDS011;56056;48.990;12.146;2023-07-08T10:25:13;1502.63;;;999.90;;
68995;SDS011;56056;48.990;12.146;2023-07-08T10:27:47;1550.07;;;999.90;;
68995;SDS011;56056;48.990;12.146;2023-07-08T10:30:19;1588.15;;;999.90;;
68995;SDS011;56056;48.990;12.146;2023-07-08T10:32:54;1400.60;;;999.90;;
68995;SDS011;56056;48.990;12.146;2023-07-08T10:35:34;1311.20;;;999.90;;
68995;SDS011;56056;48.990;12.146;2023-07-08T10:38:10;1429.63;;;999.90;;
68995;SDS011;56056;48.990;12.146;2023-07-08T10:40:48;1323.07;;;999.90;;
68995;SDS011;56056;48.990;12.146;2023-07-08T10:43:18;1277.07;;;999.90;;
68995;SDS011;56056;48.990;12.146;2023-07-08T10:45:53;1262.55;;;999.90;;
68995;SDS011;56056;48.990;12.146;2023-07-08T10:48:27;1263.68;;;999.90;;
68995;SDS011;56056;48.990;12.146;2023-07-08T10:51:08;1273.45;;;999.90;;
68995;SDS011;56056;48.990;12.146;2023-07-08T10:53:46;1264.75;;;999.90;;
68995;SDS011;56056;48.990;12.146;2023-07-08T10:56:23;1313.22;;;999.90;;
68995;SDS011;56056;48.990;12.146;2023-07-08T10:59:05;1295.45;;;999.90;;
68995;SDS011;56056;48.990;12.146;2023-07-08T11:01:39;1299.93;;;999.90;;
68995;SDS011;56056;48.990;12.146;2023-07-08T11:04:13;1315.35;;;999.90;;
68995;SDS011;56056;48.990;12.146;2023-07-08T11:06:53;1278.75;;;999.90;;
68995;SDS011;56056;48.990;12.146;2023-07-08T11:09:24;1319.38;;;999.90;;
68995;SDS011;56056;48.990;12.146;2023-07-08T11:11:53;1334.35;;;999.90;;
68995;SDS011;56056;48.990;12.146;2023-07-08T11:14:23;1358.03;;;999.90;;
68995;SDS011;56056;48.990;12.146;2023-07-08T11:16:52;1321.40;;;999.90;;
68995;SDS011;56056;48.990;12.146;2023-07-08T11:19:29;1390.28;;;999.90;;
68995;SDS011;56056;48.990;12.146;2023-07-08T11:21:58;1271.90;;;999.90;;
68995;SDS011;56056;48.990;12.146;2023-07-08T11:24:28;1240.00;;;999.90;;
68995;SDS011;56056;48.990;12.146;2023-07-08T11:26:58;1249.25;;;999.90;;
68995;SDS011;56056;48.990;12.146;2023-07-08T11:29:30;1119.90;;;999.90;;
68995;SDS011;56056;48.990;12.146;2023-07-08T11:31:59;1065.13;;;981.72;;
68995;SDS011;56056;48.990;12.146;2023-07-08T11:34:25;1003.88;;;920.80;;
68995;SDS011;56056;48.990;12.146;2023-07-08T11:36:53;960.42;;;887.88;;
68995;SDS011;56056;48.990;12.146;2023-07-08T11:39:30;958.45;;;887.83;;
68995;SDS011;56056;48.990;12.146;2023-07-08T11:42:05;895.75;;;829.30;;
68995;SDS011;56056;48.990;12.146;2023-07-08T11:44:37;1116.40;;;999.90;;
68995;SDS011;56056;48.990;12.146;2023-07-08T11:47:10;979.70;;;902.10;;
68995;SDS011;56056;48.990;12.146;2023-07-08T11:49:40;1070.32;;;984.78;;
68995;SDS011;56056;48.990;12.146;2023-07-08T11:52:08;1134.70;;;999.90;;
68995;SDS011;56056;48.990;12.146;2023-07-08T11:54:36;1164.55;;;999.90;;
68995;SDS011;56056;48.990;12.146;2023-07-08T11:57:03;1148.30;;;999.90;;
68995;SDS011;56056;48.990;12.146;2023-07-08T11:59:31;1137.93;;;999.90;;
68995;SDS011;56056;48.990;12.146;2023-07-08T12:02:02;1197.43;;;999.90;;
68995;SDS011;56056;48.990;12.146;2023-07-08T12:04:30;1198.72;;;999.90;;
68995;SDS011;56056;48.990;12.146;2023-07-08T12:07:06;1229.75;;;999.90;;
68995;SDS011;56056;48.990;12.146;2023-07-08T12:09:45;1473.40;;;999.90;;
68995;SDS011;56056;48.990;12.146;2023-07-08T12:12:21;1587.40;;;999.90;;
68995;SDS011;56056;48.990;12.146;2023-07-08T12:14:48;1550.53;;;999.90;;
68995;SDS011;56056;48.990;12.146;2023-07-08T12:17:15;1508.75;;;999.90;;
68995;SDS011;56056;48.990;12.146;2023-07-08T12:19:41;1541.97;;;999.90;;
68995;SDS011;56056;48.990;12.146;2023-07-08T12:22:08;1476.15;;;999.90;;
68995;SDS011;56056;48.990;12.146;2023-07-08T12:24:35;1639.55;;;999.90;;
68995;SDS011;56056;48.990;12.146;2023-07-08T12:27:02;1612.60;;;999.90;;
68995;SDS011;56056;48.990;12.146;2023-07-08T12:29:28;1516.90;;;999.90;;
68995;SDS011;56056;48.990;12.146;2023-07-08T12:31:53;1600.38;;;999.90;;
68995;SDS011;56056;48.990;12.146;2023-07-08T12:34:19;1649.95;;;999.90;;
68995;SDS011;56056;48.990;12.146;2023-07-08T12:36:46;1566.70;;;999.90;;
68995;SDS011;56056;48.990;12.146;2023-07-08T12:39:13;1518.65;;;999.90;;
68995;SDS011;56056;48.990;12.146;2023-07-08T12:41:43;1711.55;;;999.90;;
68995;SDS011;56056;48.990;12.146;2023-07-08T12:44:15;1515.80;;;999.90;;
68995;SDS011;56056;48.990;12.146;2023-07-08T12:46:43;1682.28;;;999.90;;
68995;SDS011;56056;48.990;12.146;2023-07-08T12:49:09;1622.07;;;999.90;;
68995;SDS011;56056;48.990;12.146;2023-07-08T12:51:35;1421.80;;;999.90;;
68995;SDS011;56056;48.990;12.146;2023-07-08T12:54:00;1541.85;;;999.90;;
68995;SDS011;56056;48.990;12.146;2023-07-08T12:56:26;1507.32;;;999.90;;
68995;SDS011;56056;48.990;12.146;2023-07-08T12:58:52;1689.43;;;999.90;;
68995;SDS011;56056;48.990;12.146;2023-07-08T13:01:21;1671.47;;;999.90;;
68995;SDS011;56056;48.990;12.146;2023-07-08T13:03:49;1616.38;;;999.90;;
68995;SDS011;56056;48.990;12.146;2023-07-08T13:06:16;1576.75;;;999.90;;
68995;SDS011;56056;48.990;12.146;2023-07-08T13:08:43;1356.18;;;999.90;;
68995;SDS011;56056;48.990;12.146;2023-07-08T13:11:11;1390.57;;;999.90;;
68995;SDS011;56056;48.990;12.146;2023-07-08T13:13:39;1306.50;;;999.90;;
68995;SDS011;56056;48.990;12.146;2023-07-08T13:16:09;1249.05;;;999.90;;
68995;SDS011;56056;48.990;12.146;2023-07-08T13:18:37;1265.25;;;999.90;;
68995;SDS011;56056;48.990;12.146;2023-07-08T13:21:04;1242.53;;;999.90;;
68995;SDS011;56056;48.990;12.146;2023-07-08T13:23:31;1184.00;;;999.90;;
68995;SDS011;56056;48.990;12.146;2023-07-08T13:25:57;1166.90;;;999.90;;
68995;SDS011;56056;48.990;12.146;2023-07-08T13:28:24;1115.82;;;999.90;;
68995;SDS011;56056;48.990;12.146;2023-07-08T13:30:50;1090.25;;;998.28;;
68995;SDS011;56056;48.990;12.146;2023-07-08T13:33:17;1173.55;;;999.90;;
68995;SDS011;56056;48.990;12.146;2023-07-08T13:35:45;928.53;;;857.65;;